Time;durP1;ratioP1;P1;durP2;ratioP2;P2;SDS_P1;SDS_P2;PMS_P1;PMS_P2;Temp;Humidity;BMP_temperature;BMP_pressure;BME280_temperature;BME280_humidity;BME280_pressure;Samples;Min_cycle;Max_cycle;Signal;HPM_P1;HPM_P2
2021/09/02 05:01:55;;;;;;;28.90;19.48;;;9.70;79.00;;;;;;5324355;23;20055;-85
2021/09/02 05:04:30;;;;;;;32.28;19.38;;;9.70;79.10;;;;;;4868158;29;20396;-85
2021/09/02 05:06:59;;;;;;;31.38;19.27;;;9.70;79.10;;;;;;4882500;29;20096;-85
2021/09/02 05:09:24;;;;;;;26.60;18.45;;;9.70;79.10;;;;;;4840951;29;20397;-85
2021/09/02 05:12:05;;;;;;;28.17;17.15;;;9.80;79.20;;;;;;4883945;29;20031;-85
2021/09/02 05:14:31;;;;;;;24.15;16.70;;;9.90;79.40;;;;;;4883567;29;20055;-85
2021/09/02 05:16:56;;;;;;;25.27;17.63;;;9.90;79.30;;;;;;4883038;29;20060;-84
2021/09/02 05:19:22;;;;;;;29.02;18.90;;;10.00;79.40;;;;;;4867780;29;20437;-84
2021/09/02 05:21:48;;;;;;;31.25;20.67;;;10.00;79.40;;;;;;4883611;29;20488;-83
2021/09/02 05:24:15;;;;;;;29.65;19.63;;;10.10;79.50;;;;;;4872720;29;20037;-83
2021/09/02 05:26:41;;;;;;;33.45;20.60;;;10.10;79.50;;;;;;4881102;29;20461;-84
2021/09/02 05:29:10;;;;;;;32.97;21.83;;;10.20;79.50;;;;;;4848922;29;20033;-83
2021/09/02 05:31:37;;;;;;;32.00;20.70;;;10.20;79.50;;;;;;4864301;29;20488;-84
2021/09/02 05:34:03;;;;;;;35.38;22.10;;;10.10;79.40;;;;;;4849079;29;20541;-84
2021/09/02 05:36:28;;;;;;;33.95;21.23;;;10.20;79.40;;;;;;4854669;29;20036;-84
2021/09/02 05:38:57;;;;;;;32.47;21.08;;;10.30;79.40;;;;;;4898501;29;20037;-84
2021/09/02 05:41:26;;;;;;;32.42;20.40;;;10.30;79.40;;;;;;4899876;29;20387;-84
2021/09/02 05:43:54;;;;;;;33.05;21.17;;;10.40;79.50;;;;;;4882897;29;20035;-83
2021/09/02 05:46:20;;;;;;;35.65;23.02;;;10.40;79.50;;;;;;4882906;29;20365;-84
2021/09/02 05:48:46;;;;;;;33.85;22.65;;;10.50;79.50;;;;;;4882675;29;20123;-84
2021/09/02 05:51:13;;;;;;;33.28;22.15;;;10.50;79.50;;;;;;4899909;29;20029;-84
2021/09/02 05:53:39;;;;;;;31.73;20.63;;;10.60;79.50;;;;;;4882904;29;20500;-84
2021/09/02 05:56:05;;;;;;;30.83;20.92;;;10.60;79.60;;;;;;4882699;29;20055;-85
2021/09/02 05:58:31;;;;;;;36.58;23.63;;;10.70;79.60;;;;;;4867245;29;20485;-84
2021/09/02 06:00:57;;;;;;;37.80;23.30;;;10.70;79.70;;;;;;4882656;29;20048;-86
2021/09/02 06:03:23;;;;;;;40.03;24.50;;;10.80;79.70;;;;;;4899542;29;20035;-86
2021/09/02 06:05:49;;;;;;;34.95;23.50;;;10.80;79.70;;;;;;4867382;29;20037;-86
2021/09/02 06:08:15;;;;;;;33.70;22.40;;;10.90;79.80;;;;;;4882750;29;20024;-87
2021/09/02 06:10:40;;;;;;;34.13;22.17;;;10.90;79.70;;;;;;4882782;29;20029;-88
2021/09/02 06:13:09;;;;;;;36.03;22.70;;;11.00;79.80;;;;;;4866716;29;20033;-87
2021/09/02 06:15:35;;;;;;;35.17;21.92;;;11.10;80.10;;;;;;4865173;29;20036;-86
2021/09/02 06:18:04;;;;;;;42.28;24.75;;;11.20;80.40;;;;;;4882368;29;20037;-87
2021/09/02 06:20:30;;;;;;;42.80;24.85;;;11.20;80.20;;;;;;4889736;29;20052;-86
2021/09/02 06:22:56;;;;;;;39.90;24.92;;;11.30;80.10;;;;;;4882108;29;20063;-86
2021/09/02 06:25:22;;;;;;;32.10;21.35;;;11.40;80.20;;;;;;4850301;29;20032;-85
2021/09/02 06:27:47;;;;;;;39.72;23.63;;;11.50;80.50;;;;;;4882555;29;20028;-87
2021/09/02 06:30:13;;;;;;;33.13;22.33;;;11.60;80.50;;;;;;4882728;29;20056;-87
2021/09/02 06:32:39;;;;;;;35.90;23.20;;;11.60;80.40;;;;;;4883246;29;20035;-84
2021/09/02 06:35:06;;;;;;;33.83;21.05;;;11.70;80.40;;;;;;4886478;29;20029;-87
2021/09/02 06:37:32;;;;;;;32.10;21.80;;;11.80;80.60;;;;;;4889429;29;20052;-87
2021/09/02 06:39:57;;;;;;;28.75;20.20;;;11.90;81.00;;;;;;4888154;29;20036;-87
2021/09/02 06:42:25;;;;;;;33.17;21.27;;;12.10;80.90;;;;;;4882757;29;20033;-84
2021/09/02 06:44:54;;;;;;;41.17;25.10;;;12.10;80.80;;;;;;4881787;29;20029;-85
2021/09/02 06:47:20;;;;;;;50.50;28.55;;;12.30;80.80;;;;;;4881031;29;20091;-85
2021/09/02 06:49:46;;;;;;;50.70;28.80;;;12.30;80.80;;;;;;4881679;29;20025;-85
2021/09/02 06:52:12;;;;;;;53.85;29.27;;;12.40;80.70;;;;;;4866024;29;20044;-85
2021/09/02 06:54:37;;;;;;;49.38;29.08;;;12.50;80.80;;;;;;4881790;29;20388;-84
2021/09/02 06:57:03;;;;;;;45.50;26.73;;;12.60;80.70;;;;;;4881720;29;20044;-84
2021/09/02 06:59:29;;;;;;;43.22;25.48;;;12.60;80.90;;;;;;4850870;29;20040;-86
2021/09/02 07:01:55;;;;;;;48.13;27.42;;;12.80;81.30;;;;;;4882876;29;20085;-87
2021/09/02 07:04:21;;;;;;;54.70;30.23;;;12.90;81.00;;;;;;4872244;29;20032;-86
2021/09/02 07:06:46;;;;;;;55.83;29.58;;;12.90;80.70;;;;;;4887344;29;20088;-83
2021/09/02 07:09:12;;;;;;;54.83;30.33;;;13.00;80.70;;;;;;4871407;29;20044;-84
2021/09/02 07:11:38;;;;;;;53.22;29.63;;;13.00;81.00;;;;;;4887999;29;20021;-84
2021/09/02 07:14:04;;;;;;;52.33;29.52;;;13.10;81.10;;;;;;4856762;29;20037;-84
2021/09/02 07:16:30;;;;;;;57.35;29.73;;;13.20;81.00;;;;;;4904296;29;20061;-83
2021/09/02 07:18:59;;;;;;;54.72;28.90;;;13.30;81.00;;;;;;4887372;29;20081;-84
2021/09/02 07:21:25;;;;;;;40.47;23.98;;;13.40;81.20;;;;;;4885001;29;20089;-85
2021/09/02 07:23:51;;;;;;;32.10;20.17;;;13.50;81.70;;;;;;4904029;29;20036;-84
2021/09/02 07:26:17;;;;;;;28.00;18.90;;;13.70;81.70;;;;;;4904037;29;20080;-85
2021/09/02 07:28:43;;;;;;;25.73;18.73;;;13.90;81.80;;;;;;4872091;29;20028;-82
2021/09/02 07:31:08;;;;;;;27.33;17.58;;;14.00;81.70;;;;;;4887087;29;20038;-82
2021/09/02 07:33:34;;;;;;;21.90;16.10;;;14.10;81.50;;;;;;4903764;29;20039;-83
2021/09/02 07:36:00;;;;;;;24.38;15.55;;;14.20;81.60;;;;;;4885820;29;20124;-85
2021/09/02 07:38:25;;;;;;;22.23;15.43;;;14.40;81.60;;;;;;4870002;29;20040;-84
2021/09/02 07:40:54;;;;;;;23.13;15.95;;;14.40;81.30;;;;;;4872034;29;20388;-84
2021/09/02 07:43:19;;;;;;;23.30;15.95;;;14.50;81.30;;;;;;4904488;29;20497;-84
2021/09/02 07:45:45;;;;;;;19.98;14.13;;;14.60;81.40;;;;;;4887452;29;20041;-84
2021/09/02 07:48:10;;;;;;;23.30;13.88;;;14.70;81.60;;;;;;4872167;29;20077;-85
2021/09/02 07:50:36;;;;;;;22.95;14.00;;;14.80;81.90;;;;;;4872540;29;20152;-85
2021/09/02 07:53:02;;;;;;;21.05;14.15;;;15.00;81.80;;;;;;4887491;29;20385;-84
2021/09/02 07:55:27;;;;;;;21.75;14.25;;;15.10;81.60;;;;;;4904224;29;20032;-84
2021/09/02 07:57:53;;;;;;;20.88;14.07;;;15.20;81.90;;;;;;4904145;29;20102;-84
2021/09/02 08:00:19;;;;;;;17.88;12.50;;;15.40;81.90;;;;;;4887553;29;20455;-85
2021/09/02 08:02:46;;;;;;;19.42;13.15;;;15.50;82.30;;;;;;4904164;29;20056;-84
2021/09/02 08:05:12;;;;;;;19.25;12.95;;;15.70;82.40;;;;;;4904462;29;20024;-85
2021/09/02 08:07:48;;;;;;;20.70;13.30;;;15.80;82.00;;;;;;4871759;29;20037;-84
2021/09/02 08:10:17;;;;;;;22.25;13.05;;;16.00;81.70;;;;;;4903187;29;20132;-84
2021/09/02 08:12:43;;;;;;;19.45;11.93;;;16.00;81.40;;;;;;4887348;29;20056;-84
2021/09/02 08:15:08;;;;;;;15.00;11.18;;;16.20;81.70;;;;;;4900984;29;20048;-84
2021/09/02 08:17:34;;;;;;;19.95;12.60;;;16.30;81.90;;;;;;4884049;29;20108;-84
2021/09/02 08:20:00;;;;;;;17.63;12.02;;;16.40;81.70;;;;;;4901075;29;20099;-84
2021/09/02 08:22:26;;;;;;;17.42;11.40;;;16.50;81.60;;;;;;4884639;29;20028;-84
2021/09/02 08:24:51;;;;;;;18.33;10.98;;;16.60;81.70;;;;;;4884142;29;20028;-85
2021/09/02 08:27:18;;;;;;;17.70;11.45;;;16.80;81.80;;;;;;4900913;29;20040;-84
2021/09/02 08:29:45;;;;;;;18.45;11.05;;;16.90;81.50;;;;;;4900972;29;20025;-84
2021/09/02 08:32:12;;;;;;;17.30;10.32;;;17.00;82.10;;;;;;4901068;29;20033;-85
2021/09/02 08:34:38;;;;;;;18.63;10.77;;;17.20;82.00;;;;;;4868488;29;20033;-84
2021/09/02 08:37:04;;;;;;;18.98;10.98;;;17.30;81.60;;;;;;4883912;29;20033;-81
2021/09/02 08:39:30;;;;;;;14.95;9.70;;;17.40;81.30;;;;;;4900612;29;20040;-84
2021/09/02 08:41:56;;;;;;;15.02;9.00;;;17.50;81.50;;;;;;4883952;29;20032;-81
2021/09/02 08:44:23;;;;;;;13.93;8.80;;;17.60;81.70;;;;;;4900522;29;20408;-82
2021/09/02 08:46:49;;;;;;;15.50;9.02;;;17.80;81.50;;;;;;4883798;29;20469;-82
2021/09/02 08:49:22;;;;;;;14.55;8.45;;;17.90;81.30;;;;;;4900323;29;20036;-82
2021/09/02 08:51:49;;;;;;;14.48;8.40;;;18.00;81.30;;;;;;4883625;29;20123;-82
2021/09/02 08:54:15;;;;;;;14.80;8.75;;;18.20;81.30;;;;;;4900305;29;20036;-82
2021/09/02 08:56:41;;;;;;;10.98;6.90;;;18.30;81.40;;;;;;4900275;29;20032;-82
2021/09/02 08:59:06;;;;;;;13.20;6.35;;;18.40;81.70;;;;;;4883664;29;20033;-82
2021/09/02 09:01:32;;;;;;;11.68;6.53;;;18.60;81.50;;;;;;4867806;29;20378;-82
2021/09/02 09:03:58;;;;;;;12.20;6.43;;;18.80;81.50;;;;;;4899975;29;20503;-82
2021/09/02 09:06:31;;;;;;;13.82;6.78;;;18.90;81.60;;;;;;4900638;29;20029;-87
2021/09/02 09:08:57;;;;;;;10.68;6.20;;;19.00;80.90;;;;;;4883721;29;20480;-87
2021/09/02 09:11:28;;;;;;;13.80;6.28;;;19.20;80.90;;;;;;4883070;29;20043;-86
2021/09/02 09:14:11;;;;;;;14.13;6.32;;;19.30;80.60;;;;;;4898250;29;20394;-86
2021/09/02 09:16:43;;;;;;;10.98;5.97;;;19.40;80.40;;;;;;4900320;29;20373;-87
2021/09/02 09:19:54;;;;;;;11.13;6.22;;;19.60;80.30;;;;;;4884109;29;20042;-87
2021/09/02 09:22:25;;;;;;;11.00;5.70;;;19.70;80.30;;;;;;4883037;29;20116;-84
2021/09/02 09:24:54;;;;;;;10.25;5.63;;;19.90;80.40;;;;;;4899728;29;20540;-84
2021/09/02 09:27:38;;;;;;;10.13;5.22;;;20.10;80.90;;;;;;4883022;29;20047;-86
2021/09/02 09:30:23;;;;;;;9.67;5.37;;;20.30;80.60;;;;;;4882317;29;20405;-83
2021/09/02 09:32:54;;;;;;;;;;;20.50;80.10;;;;;;4880078;29;20025;-83
2021/09/02 09:35:22;;;;;;;10.25;5.55;;;20.70;80.20;;;;;;4899523;29;19914;-85
2021/09/02 09:37:52;;;;;;;10.85;5.25;;;20.90;80.10;;;;;;4899564;29;20040;-85
2021/09/02 09:40:25;;;;;;;10.25;5.03;;;21.00;79.90;;;;;;4883029;29;20115;-85
2021/09/02 09:43:09;;;;;;;10.30;5.03;;;21.30;79.70;;;;;;4882852;29;20044;-87
2021/09/02 09:45:47;;;;;;;9.45;5.05;;;21.50;79.50;;;;;;4883268;29;20029;-85
2021/09/02 09:48:32;;;;;;;10.77;4.63;;;21.70;79.50;;;;;;4899569;29;20036;-85
2021/09/02 09:51:19;;;;;;;9.82;4.30;;;22.10;80.00;;;;;;4884798;29;20141;-93
2021/09/02 09:53:50;;;;;;;8.73;4.35;;;22.50;79.50;;;;;;4885304;29;20024;-92
2021/09/02 09:56:21;;;;;;;8.88;4.40;;;22.80;78.90;;;;;;4884414;29;20024;-91
2021/09/02 09:58:50;;;;;;;9.48;4.30;;;23.10;78.70;;;;;;4889005;29;20040;-91
2021/09/02 10:01:16;;;;;;;9.43;4.15;;;23.50;78.30;;;;;;4881699;29;20044;-91
2021/09/02 10:03:44;;;;;;;8.68;4.30;;;23.70;77.80;;;;;;4866115;29;20033;-92
2021/09/02 10:06:30;;;;;;;8.32;4.00;;;24.00;76.80;;;;;;4864392;29;20037;-84
2021/09/02 10:08:56;;;;;;;7.40;3.67;;;24.20;76.20;;;;;;4879317;29;20045;-88
2021/09/02 10:11:22;;;;;;;8.45;4.05;;;24.40;76.20;;;;;;4880721;29;20025;-86
2021/09/02 10:13:49;;;;;;;8.10;3.78;;;24.70;76.30;;;;;;4863943;29;20537;-87
2021/09/02 10:16:14;;;;;;;7.30;3.70;;;25.10;76.60;;;;;;4848231;29;20033;-86
2021/09/02 10:18:44;;;;;;;8.15;3.97;;;25.50;76.60;;;;;;4849219;29;20045;-90
2021/09/02 10:21:20;;;;;;;7.80;3.90;;;26.00;76.10;;;;;;4863899;29;20021;-85
2021/09/02 10:23:51;;;;;;;8.82;3.70;;;26.10;73.50;;;;;;4863574;29;20477;-85
2021/09/02 10:26:32;;;;;;;8.10;3.97;;;26.30;73.30;;;;;;4863160;29;20492;-86
2021/09/02 10:29:04;;;;;;;7.45;3.63;;;26.70;74.20;;;;;;4863383;29;20033;-87
2021/09/02 10:31:37;;;;;;;7.32;3.42;;;27.30;75.10;;;;;;4863908;29;20035;-86
2021/09/02 10:34:35;;;;;;;7.17;3.50;;;28.00;74.40;;;;;;4863549;29;20029;-86
2021/09/02 10:37:28;;;;;;;6.55;3.20;;;28.60;73.10;;;;;;4863194;29;20292;-86
2021/09/02 10:39:59;;;;;;;7.68;3.35;;;29.30;72.60;;;;;;4840264;29;20045;-83
2021/09/02 10:42:46;;;;;;;6.68;3.28;;;29.90;71.40;;;;;;4880163;29;20044;-83
2021/09/02 10:45:35;;;;;;;7.07;3.47;;;30.20;69.70;;;;;;4863174;29;20029;-84
2021/09/02 10:48:08;;;;;;;6.78;3.20;;;30.60;68.20;;;;;;4881715;29;20033;-90
2021/09/02 10:50:47;;;;;;;7.80;3.30;;;31.10;68.30;;;;;;4863488;29;20032;-84
2021/09/02 11:00:37;;;;;;;7.22;3.13;;;32.90;63.80;;;;;;4823147;29;20034;-90
2021/09/02 11:03:26;;;;;;;5.60;2.85;;;33.40;62.30;;;;;;4808681;29;20049;-89
2021/09/02 11:06:12;;;;;;;5.97;2.90;;;33.90;60.90;;;;;;4844865;29;20406;-89
2021/09/02 11:08:41;;;;;;;9.32;3.45;;;34.50;60.20;;;;;;4834596;29;20064;-89
2021/09/02 11:11:42;;;;;;;6.72;3.10;;;35.00;59.30;;;;;;4883137;29;20025;-86
2021/09/02 11:14:19;;;;;;;6.20;2.95;;;35.50;57.30;;;;;;4865989;29;20041;-86
2021/09/02 11:16:45;;;;;;;6.68;3.20;;;35.90;55.50;;;;;;4881574;29;20223;-85
2021/09/02 11:19:37;;;;;;;5.82;2.88;;;36.10;53.80;;;;;;4879083;29;20036;-85
2021/09/02 11:22:21;;;;;;;6.18;3.00;;;36.10;51.40;;;;;;4871298;29;20036;-85
2021/09/02 11:24:52;;;;;;;5.53;3.10;;;36.10;50.90;;;;;;4871821;29;20077;-85
2021/09/02 11:27:35;;;;;;;5.43;2.85;;;36.30;51.20;;;;;;4877873;29;20028;-85
2021/09/02 11:30:32;;;;;;;;;;;;;;;;;;;;;
2021/09/02 11:33:08;;;;;;;5.80;3.03;;;37.10;50.70;;;;;;4901886;29;20085;-86
2021/09/02 11:36:10;;;;;;;6.45;3.08;;;37.60;49.20;;;;;;4867554;29;20489;-94
2021/09/02 11:43:32;;;;;;;;;;;;;;;;;;;;;
2021/09/02 12:11:40;;;;;;;5.60;2.97;;;41.10;39.10;;;;;;4509913;31;20080;-85
2021/09/02 12:14:26;;;;;;;5.63;2.60;;;41.10;38.70;;;;;;4501437;31;20051;-84
2021/09/02 12:17:05;;;;;;;5.72;2.80;;;41.20;37.60;;;;;;4535399;31;20061;-87
2021/09/02 12:19:59;;;;;;;6.45;2.80;;;41.30;36.60;;;;;;4655927;30;20037;-88
2021/09/02 12:22:39;;;;;;;6.40;3.00;;;41.40;36.20;;;;;;4735261;30;20051;-90
2021/09/02 12:25:12;;;;;;;4.57;2.70;;;41.70;35.80;;;;;;4818677;29;20482;-88
2021/09/02 12:27:52;;;;;;;5.95;2.80;;;41.90;35.40;;;;;;4827970;29;20034;-88
2021/09/02 12:30:43;;;;;;;5.78;2.72;;;42.30;34.90;;;;;;4828047;29;20034;-89
2021/09/02 12:33:20;;;;;;;5.88;2.72;;;42.50;33.00;;;;;;4846180;29;20104;-90
2021/09/02 12:36:49;;;;;;;;;;;;;;;;;;;;;
2021/09/02 12:39:35;;;;;;;4.97;2.65;;;42.70;31.50;;;;;;4784703;29;20421;-88
2021/09/02 13:47:15;;;;;;;16.02;5.82;;;46.10;23.90;;;;;;4681486;30;20030;-86
2021/09/02 14:09:57;;;;;;;6.10;2.90;;;45.60;24.60;;;;;;5676542;23;20064;-86
2021/09/02 14:12:26;;;;;;;4.30;2.67;;;45.70;23.80;;;;;;4862019;29;20053;-84
2021/09/02 14:14:52;;;;;;;5.97;2.90;;;45.30;24.00;;;;;;4879280;29;20029;-85
2021/09/02 14:17:21;;;;;;;5.50;3.20;;;44.30;23.30;;;;;;4879175;29;20072;-86
2021/09/02 14:21:30;;;;;;;;;;;;;;;;;;;;;
2021/09/02 14:24:08;;;;;;;5.82;3.08;;;43.20;25.80;;;;;;4862029;29;20116;-87
2021/09/02 14:26:44;;;;;;;7.13;3.15;;;44.40;25.10;;;;;;4863707;29;20044;-87
2021/09/02 14:29:19;;;;;;;5.68;3.00;;;45.10;24.80;;;;;;4864491;29;20045;-88
2021/09/02 14:32:16;;;;;;;6.95;3.60;;;45.40;24.60;;;;;;4868854;29;20033;-89
2021/09/02 15:40:20;;;;;;;5.60;2.90;;;46.80;23.30;;;;;;4809053;29;20609;-87
2021/09/02 15:43:17;;;;;;;5.88;3.10;;;46.70;23.20;;;;;;4867375;29;20602;-88
2021/09/02 15:45:35;;;;;;;7.40;3.05;;;46.60;23.10;;;;;;4865919;29;20133;-86
2021/09/02 15:48:33;;;;;;;6.32;3.05;;;46.50;23.00;;;;;;4867199;29;20036;-88
2021/09/02 15:51:59;;;;;;;5.90;2.85;;;46.50;22.90;;;;;;4847408;29;20506;-88
2021/09/02 15:58:54;;;;;;;6.80;3.20;;;45.80;23.20;;;;;;4815821;29;20038;-88
2021/09/02 16:04:28;;;;;;;5.00;2.75;;;44.50;23.40;;;;;;4821733;29;20124;-88
2021/09/02 16:07:28;;;;;;;5.88;2.90;;;44.20;23.40;;;;;;4851154;29;20041;-88
2021/09/02 16:09:56;;;;;;;5.80;2.97;;;43.80;23.50;;;;;;4862338;29;20041;-88
2021/09/02 16:12:28;;;;;;;6.30;2.97;;;43.60;23.60;;;;;;4884795;29;20059;-89
2021/09/02 16:14:57;;;;;;;6.80;2.80;;;43.30;23.80;;;;;;4884862;29;20040;-88
2021/09/02 16:17:23;;;;;;;6.43;3.20;;;43.10;23.70;;;;;;4886307;29;20036;-86
2021/09/02 16:19:49;;;;;;;6.25;3.05;;;42.90;23.90;;;;;;4888183;29;20027;-88
2021/09/02 16:22:17;;;;;;;9.65;3.60;;;42.60;23.70;;;;;;4888258;29;20057;-87
2021/09/02 16:24:43;;;;;;;6.40;3.10;;;42.20;23.90;;;;;;4889213;29;20048;-88
2021/09/02 16:27:11;;;;;;;6.13;2.70;;;42.00;24.30;;;;;;4889381;29;20382;-87
2021/09/02 16:29:38;;;;;;;5.30;2.80;;;41.90;24.50;;;;;;4892440;29;20025;-86
2021/09/02 16:32:06;;;;;;;5.10;2.70;;;41.70;24.40;;;;;;4890672;29;20029;-87
2021/09/02 16:34:33;;;;;;;5.60;2.90;;;41.60;24.60;;;;;;4887004;29;20071;-87
2021/09/02 16:36:59;;;;;;;5.13;2.78;;;41.50;24.60;;;;;;4886512;29;20033;-87
2021/09/02 16:39:24;;;;;;;7.72;2.97;;;41.20;24.60;;;;;;4887633;29;20040;-86
2021/09/02 16:41:50;;;;;;;5.38;2.92;;;40.90;24.60;;;;;;4887714;29;20084;-87
2021/09/02 16:44:18;;;;;;;6.20;2.95;;;40.60;24.80;;;;;;4887215;29;20104;-89
2021/09/02 16:46:44;;;;;;;5.57;2.80;;;40.40;25.10;;;;;;4903435;29;20111;-88
2021/09/02 16:49:09;;;;;;;6.28;2.70;;;40.30;25.00;;;;;;4904253;29;20052;-87
2021/09/02 16:51:37;;;;;;;5.75;2.65;;;39.90;24.80;;;;;;4886778;29;20035;-86
2021/09/02 16:54:07;;;;;;;6.60;2.92;;;39.50;24.90;;;;;;4887912;29;20025;-86
2021/09/02 16:56:33;;;;;;;8.10;2.97;;;39.20;25.20;;;;;;4886392;29;20036;-86
2021/09/02 16:59:03;;;;;;;5.90;2.95;;;38.80;25.20;;;;;;4885632;29;20033;-86
2021/09/02 17:01:29;;;;;;;7.18;2.85;;;38.30;25.30;;;;;;4885930;29;20067;-86
2021/09/02 17:03:56;;;;;;;5.93;2.85;;;37.90;25.50;;;;;;4885764;29;20056;-86
2021/09/02 17:06:27;;;;;;;8.55;3.17;;;37.40;25.70;;;;;;4886406;29;20079;-86
2021/09/02 17:08:53;;;;;;;8.00;3.03;;;37.10;26.00;;;;;;4886799;29;20063;-84
2021/09/02 17:11:19;;;;;;;6.03;2.65;;;36.70;26.20;;;;;;4887667;29;20029;-84
2021/09/02 17:13:45;;;;;;;6.78;3.05;;;36.30;26.30;;;;;;4886871;29;20032;-84
2021/09/02 17:16:14;;;;;;;6.22;2.90;;;36.00;26.60;;;;;;4888776;29;20028;-84
2021/09/02 17:18:40;;;;;;;8.43;3.20;;;35.70;26.80;;;;;;4886277;29;20123;-84
2021/09/02 17:21:09;;;;;;;7.90;2.95;;;35.20;26.80;;;;;;4886604;29;20451;-84
2021/09/02 17:23:35;;;;;;;5.90;2.70;;;34.80;26.90;;;;;;4885115;29;20031;-87
2021/09/02 17:26:04;;;;;;;6.97;3.15;;;34.20;26.80;;;;;;4881804;29;20049;-85
2021/09/02 17:28:30;;;;;;;7.45;3.17;;;33.30;26.80;;;;;;4880911;29;20032;-86
2021/09/02 17:30:59;;;;;;;9.93;3.58;;;32.30;27.10;;;;;;4866754;29;20033;-86
2021/09/02 17:33:25;;;;;;;7.35;3.72;;;31.50;27.80;;;;;;4882290;29;20025;-86
2021/09/02 17:35:51;;;;;;;7.15;3.20;;;30.70;28.10;;;;;;4881163;29;20489;-87
2021/09/02 17:38:17;;;;;;;7.20;3.40;;;30.10;28.60;;;;;;4881869;29;20049;-86
2021/09/02 17:40:43;;;;;;;7.45;3.47;;;29.50;28.90;;;;;;4865573;29;20033;-87
2021/09/02 17:43:10;;;;;;;6.82;3.50;;;28.90;29.20;;;;;;4881301;29;20036;-86
2021/09/02 17:45:37;;;;;;;6.60;3.38;;;28.40;29.70;;;;;;4882686;29;20033;-88
2021/09/02 17:48:03;;;;;;;7.13;3.33;;;28.00;30.10;;;;;;4882671;29;20033;-89
2021/09/02 17:50:30;;;;;;;5.97;2.80;;;27.50;30.50;;;;;;4882171;29;20478;-84
2021/09/02 17:52:56;;;;;;;7.70;3.30;;;27.10;31.10;;;;;;4878719;29;20033;-84
2021/09/02 17:55:22;;;;;;;8.32;3.78;;;26.80;31.50;;;;;;4864560;29;20124;-84
2021/09/02 17:57:47;;;;;;;6.97;3.35;;;26.40;32.00;;;;;;4864673;29;20044;-83
2021/09/02 18:00:14;;;;;;;7.70;3.53;;;26.10;32.60;;;;;;4883387;29;20095;-93
2021/09/02 18:02:41;;;;;;;8.52;3.78;;;25.70;32.80;;;;;;4892166;29;20493;-90
2021/09/02 18:05:12;;;;;;;8.70;3.75;;;25.50;33.30;;;;;;4890110;29;20045;-94
2021/09/02 18:07:40;;;;;;;7.25;3.40;;;25.10;33.90;;;;;;4889939;29;20029;-91
2021/09/02 18:10:07;;;;;;;9.63;3.90;;;24.90;34.40;;;;;;4888660;29;20033;-93
2021/09/02 18:12:34;;;;;;;8.45;3.55;;;24.60;34.80;;;;;;4893038;29;20040;-90
2021/09/02 18:15:12;;;;;;;6.63;3.35;;;24.40;35.30;;;;;;4891549;29;20490;-87
2021/09/02 18:21:01;;;;;;;8.45;3.70;;;23.90;36.50;;;;;;4903295;29;20119;-93
2021/09/02 18:23:53;;;;;;;8.43;3.70;;;23.60;36.60;;;;;;4884024;29;20033;-95
2021/09/02 18:27:01;;;;;;;7.93;3.90;;;23.50;37.40;;;;;;4906192;29;20036;-95
2021/09/02 18:29:33;;;;;;;9.20;4.28;;;23.20;37.60;;;;;;4901560;29;20496;-96
2021/09/02 18:32:00;;;;;;;10.00;4.60;;;23.00;37.90;;;;;;4873299;29;20500;-86
2021/09/02 18:34:29;;;;;;;10.07;4.28;;;22.80;38.60;;;;;;4885977;29;20088;-88
2021/09/02 18:36:57;;;;;;;8.20;4.00;;;22.80;39.20;;;;;;4885642;29;20028;-86
2021/09/02 18:39:23;;;;;;;7.82;3.88;;;22.60;39.40;;;;;;4880396;29;20426;-84
2021/09/02 18:41:51;;;;;;;10.77;4.00;;;22.40;39.50;;;;;;4884313;29;20036;-84
2021/09/02 18:44:17;;;;;;;9.75;4.30;;;22.50;40.00;;;;;;4899388;29;20107;-84
2021/09/02 18:46:46;;;;;;;9.73;4.57;;;22.60;40.40;;;;;;4901763;29;20025;-84
2021/09/02 18:49:19;;;;;;;9.05;4.35;;;22.10;40.80;;;;;;4900646;29;20033;-83
2021/09/02 18:51:50;;;;;;;9.50;4.50;;;21.90;41.70;;;;;;4901158;29;20024;-84
2021/09/02 18:54:17;;;;;;;8.90;4.15;;;22.20;41.60;;;;;;4884042;29;20043;-84
2021/09/02 18:56:45;;;;;;;9.15;4.57;;;21.90;41.80;;;;;;4884969;29;20393;-84
2021/09/02 18:59:15;;;;;;;9.02;4.22;;;21.50;42.10;;;;;;4900821;29;20033;-85
2021/09/02 19:10:28;;;;;;;;;;;;;;;;;;;;;
2021/09/02 19:13:02;;;;;;;9.13;4.53;;;20.70;44.00;;;;;;4903482;29;20195;-90
2021/09/02 19:15:32;;;;;;;9.95;4.55;;;20.60;44.10;;;;;;4905509;29;20040;-93
2021/09/02 19:18:10;;;;;;;10.75;4.60;;;20.50;44.50;;;;;;4907201;29;20036;-94
2021/09/02 19:20:39;;;;;;;8.80;4.25;;;20.30;44.80;;;;;;4873973;29;20503;-91
2021/09/02 19:23:14;;;;;;;9.52;4.47;;;20.20;45.10;;;;;;4902506;29;20400;-91
2021/09/02 19:25:49;;;;;;;9.00;4.30;;;20.20;45.70;;;;;;4903427;29;20128;-91
2021/09/02 19:29:00;;;;;;;9.70;4.65;;;20.00;45.90;;;;;;4904395;29;20052;-91
2021/09/02 19:31:27;;;;;;;9.93;4.43;;;19.90;46.20;;;;;;4902165;29;20060;-92
2021/09/02 19:34:37;;;;;;;10.15;4.45;;;19.80;46.50;;;;;;4907845;29;20104;-93
2021/09/02 19:37:19;;;;;;;9.60;4.75;;;19.70;47.00;;;;;;4886390;29;20041;-91
2021/09/02 19:39:50;;;;;;;10.48;5.22;;;19.60;47.20;;;;;;4902087;29;20033;-91
2021/09/02 19:42:54;;;;;;;10.07;4.65;;;19.40;47.40;;;;;;4902290;29;20024;-91
2021/09/02 19:45:50;;;;;;;10.23;5.22;;;19.30;48.00;;;;;;4903817;29;20072;-85
2021/09/02 19:48:27;;;;;;;9.52;5.20;;;19.10;48.30;;;;;;4894002;29;20285;-90
2021/09/02 19:51:11;;;;;;;10.35;5.35;;;19.10;48.50;;;;;;4884976;29;20037;-90
2021/09/02 19:53:44;;;;;;;10.77;5.60;;;19.00;49.00;;;;;;4897968;29;20091;-88
2021/09/02 19:56:12;;;;;;;11.60;5.70;;;18.80;49.00;;;;;;4879485;29;20057;-88
2021/09/02 19:58:46;;;;;;;9.70;4.88;;;18.80;49.30;;;;;;4878759;29;20379;-87
2021/09/02 20:01:17;;;;;;;9.98;5.18;;;18.70;49.80;;;;;;4897484;29;20051;-88
2021/09/02 20:03:57;;;;;;;10.57;5.47;;;18.60;49.90;;;;;;4897794;29;20024;-88
2021/09/02 20:06:32;;;;;;;12.57;5.72;;;18.50;50.10;;;;;;4892129;29;20033;-87
2021/09/02 20:08:59;;;;;;;10.43;5.38;;;18.40;50.50;;;;;;4898274;29;20049;-87
2021/09/02 20:11:32;;;;;;;12.27;5.57;;;18.20;50.60;;;;;;4899067;29;20505;-87
2021/09/02 20:14:01;;;;;;;10.30;5.95;;;18.30;51.10;;;;;;4900940;29;20031;-87
2021/09/02 20:16:35;;;;;;;10.32;5.90;;;18.10;51.30;;;;;;4885136;29;20481;-88
2021/09/02 20:19:07;;;;;;;10.20;5.93;;;18.00;51.70;;;;;;4882821;29;20044;-87
2021/09/02 20:21:34;;;;;;;11.75;6.40;;;18.00;51.90;;;;;;4900937;29;20024;-87
2021/09/02 20:24:30;;;;;;;11.57;5.93;;;17.90;52.20;;;;;;4883861;29;20397;-87
2021/09/02 20:26:57;;;;;;;10.75;6.15;;;17.90;52.50;;;;;;4892729;29;20121;-87
2021/09/02 20:29:43;;;;;;;11.20;6.00;;;17.90;52.80;;;;;;4901771;29;20020;-86
2021/09/02 20:32:09;;;;;;;10.43;6.28;;;17.70;53.10;;;;;;4884294;29;20032;-88
2021/09/02 20:34:41;;;;;;;10.63;6.28;;;17.60;53.10;;;;;;4900468;29;20036;-88
2021/09/02 20:37:43;;;;;;;10.95;6.18;;;17.50;53.50;;;;;;4900892;29;20127;-87
2021/09/02 20:40:16;;;;;;;10.63;6.00;;;17.50;53.80;;;;;;4901587;29;20021;-88
2021/09/02 20:43:41;;;;;;;;;;;;;;;;;;;;;
2021/09/02 20:46:56;;;;;;;10.48;6.43;;;17.50;54.50;;;;;;4861574;29;20474;-87
2021/09/02 20:49:36;;;;;;;10.88;6.90;;;17.20;54.70;;;;;;4902565;29;20033;-88
2021/09/02 20:52:20;;;;;;;12.35;6.93;;;17.20;54.90;;;;;;4885448;29;20442;-88
2021/09/02 20:55:08;;;;;;;11.73;6.88;;;17.00;55.40;;;;;;4883444;29;20077;-87
2021/09/02 20:58:10;;;;;;;;;;;;;;;;;;;;;
2021/09/02 21:00:55;;;;;;;13.40;6.65;;;16.90;56.00;;;;;;4884959;29;20040;-87
2021/09/02 21:03:51;;;;;;;12.35;6.80;;;16.90;56.40;;;;;;4880587;29;20572;-88
2021/09/02 21:06:34;;;;;;;10.88;6.78;;;16.80;56.60;;;;;;4893353;29;20027;-87
2021/09/02 21:09:25;;;;;;;10.88;6.78;;;16.80;56.80;;;;;;4898944;29;20051;-87
2021/09/02 21:11:53;;;;;;;11.35;6.88;;;16.70;57.10;;;;;;4899295;29;20036;-88
